Time;durP1;ratioP1;P1;durP2;ratioP2;P2;SDS_P1;SDS_P2;PMS_P1;PMS_P2;Temp;Humidity;BMP_temperature;BMP_pressure;BME280_temperature;BME280_humidity;BME280_pressure;Samples;Min_cycle;Max_cycle;Signal;HPM_P1;HPM_P2
2023/06/11 00:01:57;;;;;;;;;;;;;;;22.06;49.84;101416.41;5026856;28;1958;-79
2023/06/11 00:04:25;;;;;;;;;;;;;;;22.05;50.32;101412.13;5027087;28;1692;-79
2023/06/11 00:06:53;;;;;;;;;;;;;;;22.02;50.46;101412.47;5055541;28;1266;-80
2023/06/11 00:09:18;;;;;;;;;;;;;;;22.01;50.29;101408.22;5050229;28;1290;-80
2023/06/11 00:11:43;;;;;;;;;;;;;;;22.02;50.15;101404.56;5051767;28;1265;-79
2023/06/11 00:14:09;;;;;;;;;;;;;;;22.00;50.67;101406.56;5031521;28;1314;-79
2023/06/11 00:16:34;;;;;;;;;;;;;;;21.95;50.52;101403.66;5042646;28;1320;-79
2023/06/11 00:19:00;;;;;;;;;;;;;;;21.91;50.78;101397.16;5042753;28;1345;-79
2023/06/11 00:21:25;;;;;;;;;;;;;;;21.87;50.80;101403.78;5046405;28;1256;-80
2023/06/11 00:23:50;;;;;;;;;;;;;;;21.86;51.26;101410.09;5045165;28;1902;-79
2023/06/11 00:26:15;;;;;;;;;;;;;;;21.79;50.97;101403.88;5043746;28;1406;-80
2023/06/11 00:28:40;;;;;;;;;;;;;;;21.72;51.22;101404.63;5031086;28;1297;-80
2023/06/11 00:31:06;;;;;;;;;;;;;;;21.66;51.40;101401.91;5031281;28;1280;-79
2023/06/11 00:33:31;;;;;;;;;;;;;;;21.65;51.43;101403.72;5046338;28;1379;-79
2023/06/11 00:35:56;;;;;;;;;;;;;;;21.59;51.83;101399.19;5045987;28;1170;-79
2023/06/11 00:38:22;;;;;;;;;;;;;;;21.56;52.07;101402.16;5046144;28;1233;-79
2023/06/11 00:40:47;;;;;;;;;;;;;;;21.54;52.38;101404.19;5036441;28;1233;-79
2023/06/11 00:43:12;;;;;;;;;;;;;;;21.49;52.60;101393.34;5027017;28;1894;-79
2023/06/11 00:45:38;;;;;;;;;;;;;;;21.48;52.74;101397.00;5048848;28;1382;-79
2023/06/11 00:48:03;;;;;;;;;;;;;;;21.44;53.86;101401.00;5041457;28;1365;-80
2023/06/11 00:50:29;;;;;;;;;;;;;;;21.43;53.15;101399.38;5048748;28;1282;-79
2023/06/11 00:52:54;;;;;;;;;;;;;;;21.38;52.54;101397.25;5053171;28;1350;-79
2023/06/11 00:55:20;;;;;;;;;;;;;;;21.38;52.99;101402.53;5051173;28;1601;-79
2023/06/11 00:57:47;;;;;;;;;;;;;;;21.37;52.69;101405.38;5031786;28;1321;-79
2023/06/11 01:00:13;;;;;;;;;;;;;;;21.32;53.35;101405.91;5044998;28;1544;-79
2023/06/11 01:02:39;;;;;;;;;;;;;;;21.30;53.11;101404.47;5023758;28;2128;-79
2023/06/11 01:05:06;;;;;;;;;;;;;;;21.29;53.67;101405.44;5051127;28;1362;-79
2023/06/11 01:07:35;;;;;;;;;;;;;;;21.26;53.99;101403.16;5036701;28;1318;-80
2023/06/11 01:10:01;;;;;;;;;;;;;;;21.23;53.32;101395.63;5050531;28;1164;-79
2023/06/11 01:12:27;;;;;;;;;;;;;;;21.17;53.64;101395.34;5037388;28;1217;-80
2023/06/11 01:14:52;;;;;;;;;;;;;;;21.16;54.06;101404.25;5050909;28;1611;-79
2023/06/11 01:17:25;;;;;;;;;;;;;;;21.13;53.85;101407.25;5050377;28;1019;-79
2023/06/11 01:19:56;;;;;;;;;;;;;;;21.09;54.56;101408.59;5054911;28;1134;-80
2023/06/11 01:22:33;;;;;;;;;;;;;;;21.05;54.15;101406.50;5032776;28;1947;-79
2023/06/11 01:25:15;;;;;;;;;;;;;;;20.99;54.55;101404.56;5029734;28;1583;-79
2023/06/11 01:27:43;;;;;;;;;;;;;;;20.97;54.69;101410.03;5046940;28;975;-79
2023/06/11 01:30:10;;;;;;;;;;;;;;;20.93;54.73;101419.28;5048898;28;1165;-79
2023/06/11 01:32:36;;;;;;;;;;;;;;;20.87;54.70;101414.72;5047873;28;1479;-79
2023/06/11 01:35:01;;;;;;;;;;;;;;;20.84;55.04;101404.56;5051332;28;1404;-79
2023/06/11 01:37:29;;;;;;;;;;;;;;;20.80;54.82;101413.81;5031211;28;1383;-79
2023/06/11 01:39:54;;;;;;;;;;;;;;;20.77;55.71;101419.44;5037039;28;1244;-79
2023/06/11 01:42:20;;;;;;;;;;;;;;;20.76;55.40;101415.16;5034216;28;1961;-79
2023/06/11 01:44:45;;;;;;;;;;;;;;;20.69;56.48;101413.22;5037725;28;1590;-79
2023/06/11 01:47:10;;;;;;;;;;;;;;;20.65;56.32;101416.41;5036935;28;1431;-79
2023/06/11 01:49:35;;;;;;;;;;;;;;;20.60;56.24;101409.03;5045165;28;1171;-79
2023/06/11 01:52:00;;;;;;;;;;;;;;;20.57;56.07;101414.66;5055820;28;1615;-79
2023/06/11 01:54:26;;;;;;;;;;;;;;;20.49;56.51;101412.06;5033894;28;1671;-80
2023/06/11 01:56:51;;;;;;;;;;;;;;;20.45;57.20;101404.66;5056862;28;1393;-79
2023/06/11 01:59:17;;;;;;;;;;;;;;;20.43;56.87;101402.22;5048901;28;1689;-79
2023/06/11 02:01:42;;;;;;;;;;;;;;;20.38;56.84;101405.38;5036661;28;1930;-80
2023/06/11 02:04:08;;;;;;;;;;;;;;;20.35;57.08;101405.69;5057550;28;1688;-79
2023/06/11 02:06:33;;;;;;;;;;;;;;;20.32;57.29;101400.81;5034230;28;1421;-79
2023/06/11 02:08:58;;;;;;;;;;;;;;;20.29;57.16;101400.31;5049315;28;1264;-80
2023/06/11 02:11:24;;;;;;;;;;;;;;;20.27;57.67;101408.41;5049913;28;1585;-81
2023/06/11 02:13:49;;;;;;;;;;;;;;;20.25;57.62;101404.31;5053036;28;1260;-80
2023/06/11 02:16:14;;;;;;;;;;;;;;;20.22;57.89;101394.94;5042792;28;1229;-79
2023/06/11 02:18:39;;;;;;;;;;;;;;;20.19;57.94;101399.75;5029689;28;1365;-79
2023/06/11 02:21:05;;;;;;;;;;;;;;;20.16;58.19;101396.44;5037286;28;1440;-79
2023/06/11 02:23:30;;;;;;;;;;;;;;;20.13;58.45;101399.44;5044025;28;1951;-79
2023/06/11 02:25:55;;;;;;;;;;;;;;;20.11;58.82;101393.50;5048570;28;1236;-79
2023/06/11 02:28:20;;;;;;;;;;;;;;;20.10;58.77;101402.41;5045819;28;1650;-79
2023/06/11 02:30:46;;;;;;;;;;;;;;;20.05;58.71;101394.22;5044564;28;1557;-79
2023/06/11 02:33:11;;;;;;;;;;;;;;;20.02;59.19;101394.56;5042885;28;1256;-79
2023/06/11 02:35:36;;;;;;;;;;;;;;;20.01;59.32;101392.91;5045030;28;1112;-79
2023/06/11 02:38:01;;;;;;;;;;;;;;;20.00;59.34;101401.81;5042890;28;1566;-79
2023/06/11 02:40:26;;;;;;;;;;;;;;;19.98;59.46;101402.97;5049514;28;1351;-79
2023/06/11 02:42:52;;;;;;;;;;;;;;;19.95;59.77;101392.78;5054726;28;1955;-79
2023/06/11 02:45:17;;;;;;;;;;;;;;;19.90;59.73;101395.97;5050705;28;1161;-79
2023/06/11 02:47:42;;;;;;;;;;;;;;;19.84;60.00;101396.63;5030674;28;2471;-79
2023/06/11 02:50:07;;;;;;;;;;;;;;;19.81;60.13;101403.06;5050681;28;1696;-79
2023/06/11 02:52:32;;;;;;;;;;;;;;;19.79;60.22;101404.22;5053805;28;1100;-79
2023/06/11 02:54:58;;;;;;;;;;;;;;;19.77;60.26;101399.13;5049677;28;1027;-79
2023/06/11 02:57:23;;;;;;;;;;;;;;;19.74;60.51;101401.28;5051435;28;1330;-79
2023/06/11 02:59:48;;;;;;;;;;;;;;;19.72;60.63;101416.41;5030007;28;1542;-79
2023/06/11 03:02:14;;;;;;;;;;;;;;;19.67;61.56;101413.47;5033604;28;1941;-79
2023/06/11 03:04:39;;;;;;;;;;;;;;;19.60;61.14;101410.69;5047184;28;1315;-79
2023/06/11 03:07:04;;;;;;;;;;;;;;;19.57;61.20;101417.09;5057411;28;1165;-79
2023/06/11 03:09:29;;;;;;;;;;;;;;;19.54;61.55;101412.16;5057232;28;1331;-79
2023/06/11 03:11:55;;;;;;;;;;;;;;;19.52;61.47;101416.78;5052873;28;1321;-80
2023/06/11 03:14:21;;;;;;;;;;;;;;;19.50;61.93;101416.16;5055590;28;1248;-79
2023/06/11 03:16:46;;;;;;;;;;;;;;;19.49;61.73;101419.75;5046974;28;1520;-79
2023/06/11 03:19:11;;;;;;;;;;;;;;;19.46;61.87;101422.72;5045052;28;1307;-79
2023/06/11 03:21:36;;;;;;;;;;;;;;;19.45;62.19;101412.38;5034132;28;1524;-80
2023/06/11 03:24:02;;;;;;;;;;;;;;;19.42;62.61;101424.03;5041694;28;1947;-79
2023/06/11 03:26:27;;;;;;;;;;;;;;;19.37;62.50;101426.34;5030242;28;1384;-79
2023/06/11 03:28:53;;;;;;;;;;;;;;;19.34;62.76;101424.91;5025652;28;1355;-79
2023/06/11 03:31:18;;;;;;;;;;;;;;;19.35;62.95;101423.09;5046717;28;1530;-78
2023/06/11 03:33:43;;;;;;;;;;;;;;;19.33;62.92;101419.81;5027933;28;1186;-79
2023/06/11 03:36:09;;;;;;;;;;;;;;;19.30;63.37;101420.94;5039746;28;1356;-79
2023/06/11 03:38:35;;;;;;;;;;;;;;;19.29;63.32;101415.88;5047898;28;1274;-79
2023/06/11 03:41:00;;;;;;;;;;;;;;;19.28;63.44;101417.69;5054249;28;1379;-79
2023/06/11 03:43:26;;;;;;;;;;;;;;;19.28;63.55;101416.84;5022241;28;1967;-79
2023/06/11 03:45:51;;;;;;;;;;;;;;;19.26;63.61;101424.06;5034387;28;1261;-79
2023/06/11 03:48:16;;;;;;;;;;;;;;;19.24;63.81;101426.88;5031209;28;1590;-79
2023/06/11 03:50:41;;;;;;;;;;;;;;;19.23;64.08;101425.25;5029240;28;1577;-78
2023/06/11 03:53:06;;;;;;;;;;;;;;;19.23;63.98;101424.44;5049927;28;1110;-80
2023/06/11 03:55:32;;;;;;;;;;;;;;;19.20;64.12;101425.56;5050340;28;1444;-79
2023/06/11 03:57:57;;;;;;;;;;;;;;;19.20;64.43;101420.31;5048245;28;1373;-79
2023/06/11 04:00:22;;;;;;;;;;;;;;;19.20;64.77;101422.94;5051725;28;1303;-79
2023/06/11 04:02:47;;;;;;;;;;;;;;;19.19;64.57;101421.31;5026408;28;1871;-79
2023/06/11 04:05:12;;;;;;;;;;;;;;;19.20;64.47;101430.00;5044456;28;1560;-78
2023/06/11 04:07:39;;;;;;;;;;;;;;;19.18;64.55;101426.72;5049064;28;1468;-79
2023/06/11 04:10:06;;;;;;;;;;;;;;;19.19;64.87;101433.63;5057770;28;1163;-79
2023/06/11 04:12:31;;;;;;;;;;;;;;;19.18;64.88;101432.00;5052664;28;1326;-79
2023/06/11 04:14:56;;;;;;;;;;;;;;;19.19;64.99;101417.84;5043658;28;1403;-79
2023/06/11 04:17:21;;;;;;;;;;;;;;;19.21;64.99;101429.00;5056354;28;1264;-78
2023/06/11 04:19:46;;;;;;;;;;;;;;;19.23;65.00;101429.69;5037164;28;1340;-78
2023/06/11 04:22:12;;;;;;;;;;;;;;;19.23;65.14;101429.69;5041893;28;1881;-79
2023/06/11 04:24:37;;;;;;;;;;;;;;;19.25;64.78;101427.69;5028104;28;1466;-79
2023/06/11 04:27:02;;;;;;;;;;;;;;;19.24;64.93;101432.16;5027487;28;1077;-79
2023/06/11 04:29:29;;;;;;;;;;;;;;;19.24;65.23;101431.31;5025089;28;1316;-79
2023/06/11 04:31:54;;;;;;;;;;;;;;;19.24;65.38;101431.31;5023543;28;1226;-79
2023/06/11 04:34:20;;;;;;;;;;;;;;;19.22;66.47;101438.56;5044295;28;1362;-78
2023/06/11 04:36:47;;;;;;;;;;;;;;;19.25;65.39;101438.22;5044226;28;1288;-79
2023/06/11 04:39:12;;;;;;;;;;;;;;;19.24;65.49;101442.66;5025368;28;1347;-79
2023/06/11 04:41:38;;;;;;;;;;;;;;;19.25;65.53;101438.22;5048132;28;1412;-80
2023/06/11 04:44:03;;;;;;;;;;;;;;;19.26;65.93;101445.13;5043734;28;1894;-79
2023/06/11 04:46:29;;;;;;;;;;;;;;;19.30;65.88;101438.53;5047271;28;1039;-79
2023/06/11 04:48:58;;;;;;;;;;;;;;;19.31;66.73;101437.56;5054664;28;1053;-79
2023/06/11 04:51:23;;;;;;;;;;;;;;;19.32;66.05;101433.94;5043404;28;1307;-79
2023/06/11 04:53:52;;;;;;;;;;;;;;;19.32;66.27;101440.00;5050923;28;1203;-79
2023/06/11 04:56:17;;;;;;;;;;;;;;;19.35;66.62;101438.88;5035809;28;1768;-79
2023/06/11 04:58:42;;;;;;;;;;;;;;;19.38;66.83;101441.16;5048741;28;1374;-79
2023/06/11 05:01:08;;;;;;;;;;;;;;;19.42;66.25;101439.00;5029025;28;1639;-79
2023/06/11 05:03:37;;;;;;;;;;;;;;;19.44;66.75;101437.88;5048727;28;1923;-79
2023/06/11 05:06:02;;;;;;;;;;;;;;;19.47;65.94;101437.53;5048062;28;1332;-79
2023/06/11 05:08:28;;;;;;;;;;;;;;;19.52;66.08;101448.38;5050147;28;1083;-79
2023/06/11 05:10:56;;;;;;;;;;;;;;;19.52;66.47;101440.47;5050394;28;1695;-79
2023/06/11 05:13:27;;;;;;;;;;;;;;;19.54;66.56;101438.47;5055848;28;1164;-79
2023/06/11 05:15:53;;;;;;;;;;;;;;;19.60;66.64;101443.09;5046318;28;1301;-79
2023/06/11 05:18:20;;;;;;;;;;;;;;;19.63;66.58;101437.50;5027207;28;1345;-79
2023/06/11 05:20:45;;;;;;;;;;;;;;;19.67;66.10;101437.16;5050771;28;1319;-79
2023/06/11 05:23:10;;;;;;;;;;;;;;;19.70;66.28;101442.09;5048703;28;1953;-79
2023/06/11 05:25:36;;;;;;;;;;;;;;;19.73;66.29;101441.75;5050917;28;1193;-79
2023/06/11 05:28:01;;;;;;;;;;;;;;;19.77;66.00;101437.78;5063230;28;1217;-79
2023/06/11 05:30:29;;;;;;;;;;;;;;;19.83;65.99;101440.56;5048867;28;1608;-79
2023/06/11 05:32:55;;;;;;;;;;;;;;;19.89;66.05;101444.31;5051434;28;1169;-79
2023/06/11 05:35:20;;;;;;;;;;;;;;;19.95;65.92;101438.34;5045547;28;991;-79
2023/06/11 05:37:45;;;;;;;;;;;;;;;20.03;65.49;101442.78;5048755;28;1284;-79
2023/06/11 05:40:11;;;;;;;;;;;;;;;20.06;66.33;101437.97;5029671;28;1327;-79
2023/06/11 05:42:36;;;;;;;;;;;;;;;20.12;65.60;101441.72;5047718;28;1898;-79
2023/06/11 05:45:01;;;;;;;;;;;;;;;20.20;65.52;101448.78;5052852;28;1330;-80
2023/06/11 05:47:26;;;;;;;;;;;;;;;20.25;65.27;101438.56;5050410;28;1577;-79
2023/06/11 05:49:52;;;;;;;;;;;;;;;20.31;64.95;101437.88;5049097;28;1332;-80
2023/06/11 05:52:17;;;;;;;;;;;;;;;20.37;65.01;101435.34;5034387;28;1154;-79
2023/06/11 05:54:42;;;;;;;;;;;;;;;20.44;64.51;101440.75;5054674;28;1397;-79
2023/06/11 05:57:16;;;;;;;;;;;;;;;20.52;64.70;101443.34;5057591;28;1306;-79
2023/06/11 05:59:42;;;;;;;;;;;;;;;20.62;64.94;101445.75;5046233;28;1690;-79
2023/06/11 06:02:07;;;;;;;;;;;;;;;20.71;64.60;101446.53;5049886;28;1969;-80
2023/06/11 06:04:32;;;;;;;;;;;;;;;20.81;64.15;101447.09;5054960;28;1210;-81
2023/06/11 06:07:00;;;;;;;;;;;;;;;20.90;64.06;101446.03;5030170;28;1421;-80
2023/06/11 06:09:25;;;;;;;;;;;;;;;20.99;63.74;101450.25;5053180;28;1415;-80
2023/06/11 06:11:51;;;;;;;;;;;;;;;21.09;63.62;101456.06;5054776;28;1336;-79
2023/06/11 06:14:16;;;;;;;;;;;;;;;21.17;63.23;101456.00;5052888;28;1222;-80
2023/06/11 06:16:41;;;;;;;;;;;;;;;21.27;62.96;101460.19;5054681;28;1317;-81
2023/06/11 06:19:06;;;;;;;;;;;;;;;21.34;62.51;101461.16;5049799;28;1545;-80
2023/06/11 06:21:31;;;;;;;;;;;;;;;21.42;62.51;101455.78;5039286;28;1587;-80
2023/06/11 06:23:57;;;;;;;;;;;;;;;21.49;61.66;101456.69;5046172;28;1959;-80
2023/06/11 06:26:23;;;;;;;;;;;;;;;21.59;61.85;101451.97;5051369;28;1337;-80
2023/06/11 06:28:48;;;;;;;;;;;;;;;21.67;61.44;101464.25;5031644;28;2264;-81
2023/06/11 06:31:14;;;;;;;;;;;;;;;21.73;60.87;101453.81;5032933;28;1230;-80
2023/06/11 06:33:39;;;;;;;;;;;;;;;21.80;60.83;101464.44;5027178;28;1306;-80
2023/06/11 06:36:04;;;;;;;;;;;;;;;21.88;60.94;101466.16;5028626;28;1258;-80
2023/06/11 06:38:31;;;;;;;;;;;;;;;21.96;60.86;101468.69;5032802;28;1519;-80
2023/06/11 06:40:56;;;;;;;;;;;;;;;22.03;60.41;101464.34;5033603;28;1338;-80
2023/06/11 06:43:21;;;;;;;;;;;;;;;22.08;60.22;101467.25;5046731;28;1914;-80
2023/06/11 06:45:46;;;;;;;;;;;;;;;22.15;59.85;101468.16;5048247;28;1171;-80
2023/06/11 06:48:12;;;;;;;;;;;;;;;22.22;60.02;101469.06;5048483;28;1370;-80
2023/06/11 06:50:37;;;;;;;;;;;;;;;22.33;59.60;101480.16;5029538;28;1188;-80
2023/06/11 06:53:02;;;;;;;;;;;;;;;22.39;59.68;101471.47;5043953;28;1102;-81
2023/06/11 06:55:27;;;;;;;;;;;;;;;22.48;59.39;101473.81;5032727;28;1330;-81
2023/06/11 06:57:52;;;;;;;;;;;;;;;22.55;59.83;101475.72;5034827;28;1270;-82
2023/06/11 07:00:18;;;;;;;;;;;;;;;22.66;59.36;101468.09;5051330;28;1090;-80
2023/06/11 07:02:43;;;;;;;;;;;;;;;22.74;59.01;101467.97;5055031;28;1947;-80
2023/06/11 07:05:10;;;;;;;;;;;;;;;22.82;58.42;101474.13;5039360;28;1161;-80
2023/06/11 07:07:35;;;;;;;;;;;;;;;22.91;58.36;101467.72;5051043;28;1334;-80
2023/06/11 07:10:00;;;;;;;;;;;;;;;23.01;58.19;101474.34;5050024;28;1088;-80
2023/06/11 07:12:25;;;;;;;;;;;;;;;23.13;58.20;101477.28;5058931;28;1094;-80
2023/06/11 07:14:50;;;;;;;;;;;;;;;23.21;58.12;101477.13;5048640;28;1349;-80
2023/06/11 07:17:18;;;;;;;;;;;;;;;23.26;58.06;101472.06;5039644;28;1283;-80
2023/06/11 07:19:43;;;;;;;;;;;;;;;23.37;57.51;101472.56;5054848;28;1153;-80
2023/06/11 07:22:08;;;;;;;;;;;;;;;23.44;57.32;101478.69;5056832;28;1957;-80
2023/06/11 07:24:35;;;;;;;;;;;;;;;23.52;57.32;101475.91;5028821;28;1271;-80
2023/06/11 07:27:00;;;;;;;;;;;;;;;23.62;57.23;101479.03;5057279;28;1290;-80
2023/06/11 07:29:25;;;;;;;;;;;;;;;23.74;56.84;101484.59;5024000;28;1563;-81
2023/06/11 07:31:51;;;;;;;;;;;;;;;23.83;56.69;101478.97;5030781;28;1184;-80
2023/06/11 07:34:16;;;;;;;;;;;;;;;23.95;55.80;101481.03;5044329;28;1285;-80
2023/06/11 07:36:41;;;;;;;;;;;;;;;24.03;55.95;101472.94;5029317;28;1293;-80
2023/06/11 07:39:06;;;;;;;;;;;;;;;24.13;55.74;101478.66;5031181;28;1233;-80
2023/06/11 07:41:32;;;;;;;;;;;;;;;24.23;55.68;101480.94;5043706;28;1252;-80
2023/06/11 07:43:57;;;;;;;;;;;;;;;24.31;55.34;101481.56;5047623;28;1890;-80
2023/06/11 07:46:23;;;;;;;;;;;;;;;24.43;55.71;101478.38;5029229;28;1395;-81
2023/06/11 07:48:48;;;;;;;;;;;;;;;24.54;54.97;101478.59;5050077;28;1336;-81
2023/06/11 07:51:14;;;;;;;;;;;;;;;24.62;54.79;101480.25;5047427;28;1431;-80
2023/06/11 07:53:40;;;;;;;;;;;;;;;24.68;54.97;101479.44;5032426;28;1625;-81
2023/06/11 07:56:06;;;;;;;;;;;;;;;24.79;54.93;101484.16;5031327;28;1279;-79
2023/06/11 07:58:31;;;;;;;;;;;;;;;24.86;54.48;101481.50;5050556;28;1133;-77
2023/06/11 08:00:56;;;;;;;;;;;;;;;24.93;54.45;101479.66;5043350;28;1224;-79
2023/06/11 08:03:21;;;;;;;;;;;;;;;25.07;54.57;101491.16;5039105;28;1886;-79
2023/06/11 08:05:47;;;;;;;;;;;;;;;25.18;54.27;101477.25;5049946;28;1301;-79
2023/06/11 08:08:12;;;;;;;;;;;;;;;25.29;53.33;101492.56;5033042;28;1406;-81
2023/06/11 08:10:37;;;;;;;;;;;;;;;25.34;53.41;101482.09;5044290;28;1197;-80
2023/06/11 08:13:03;;;;;;;;;;;;;;;25.41;53.56;101477.63;5036976;28;1562;-78
2023/06/11 08:15:29;;;;;;;;;;;;;;;25.52;52.72;101483.31;5050861;28;1227;-82
2023/06/11 08:17:55;;;;;;;;;;;;;;;25.52;51.92;101483.31;5046908;28;1409;-78
2023/06/11 08:20:20;;;;;;;;;;;;;;;25.69;51.82;101480.00;5046075;28;1174;-80
2023/06/11 08:22:46;;;;;;;;;;;;;;;25.62;52.21;101483.69;5052193;28;1890;-80
2023/06/11 08:25:11;;;;;;;;;;;;;;;25.72;52.64;101473.44;5034386;28;1566;-77
2023/06/11 08:27:36;;;;;;;;;;;;;;;25.78;51.69;101475.31;5033373;28;1319;-79
2023/06/11 08:30:02;;;;;;;;;;;;;;;25.83;51.74;101470.19;5040737;28;1281;-79
2023/06/11 08:32:27;;;;;;;;;;;;;;;25.94;51.78;101472.19;5045383;28;1241;-79
2023/06/11 08:34:52;;;;;;;;;;;;;;;26.00;50.85;101469.72;5041097;28;1369;-79
2023/06/11 08:37:18;;;;;;;;;;;;;;;26.07;51.00;101471.28;5040536;28;1620;-81
2023/06/11 08:39:43;;;;;;;;;;;;;;;26.10;49.94;101464.75;5047924;28;1284;-81
2023/06/11 08:42:08;;;;;;;;;;;;;;;26.16;50.63;101474.53;5045731;28;1965;-84
2023/06/11 08:44:34;;;;;;;;;;;;;;;26.29;50.53;101479.78;5040120;28;2043;-81
2023/06/11 08:47:01;;;;;;;;;;;;;;;26.33;49.73;101465.03;5053701;28;1461;-81
2023/06/11 08:49:27;;;;;;;;;;;;;;;26.46;49.80;101470.28;5047384;28;1668;-83
2023/06/11 08:51:55;;;;;;;;;;;;;;;26.58;49.48;101467.75;5055338;28;1171;-83
2023/06/11 08:54:20;;;;;;;;;;;;;;;26.72;49.44;101471.13;5045515;28;1204;-81
2023/06/11 08:56:45;;;;;;;;;;;;;;;26.76;49.39;101463.53;5044572;28;1309;-79
2023/06/11 08:59:10;;;;;;;;;;;;;;;26.90;49.27;101457.91;5050841;28;1334;-80
2023/06/11 09:01:37;;;;;;;;;;;;;;;27.02;48.41;101462.50;5037761;28;1336;-80
2023/06/11 09:04:03;;;;;;;;;;;;;;;27.06;46.87;101461.03;5024462;28;1965;-79
2023/06/11 09:06:29;;;;;;;;;;;;;;;27.12;47.64;101463.66;5050240;28;1156;-81
2023/06/11 09:08:58;;;;;;;;;;;;;;;27.16;48.00;101458.72;5048309;28;1152;-80
2023/06/11 09:11:30;;;;;;;;;;;;;;;27.27;47.80;101455.31;5051954;28;1079;-81
2023/06/11 09:13:55;;;;;;;;;;;;;;;27.42;47.14;101458.44;5054401;28;1207;-80
2023/06/11 09:16:20;;;;;;;;;;;;;;;27.52;46.77;101458.72;5054144;28;1280;-80
2023/06/11 09:18:46;;;;;;;;;;;;;;;27.51;45.39;101461.63;5045456;28;1683;-83
2023/06/11 09:21:11;;;;;;;;;;;;;;;27.52;46.37;101461.41;5032979;28;1333;-80
2023/06/11 09:23:37;;;;;;;;;;;;;;;27.64;46.47;101466.81;5028167;28;1981;-81
2023/06/11 09:26:03;;;;;;;;;;;;;;;27.78;46.21;101467.50;5032144;28;1466;-79
2023/06/11 09:28:32;;;;;;;;;;;;;;;27.88;45.85;101457.13;5036737;28;1259;-80
2023/06/11 09:30:58;;;;;;;;;;;;;;;28.09;45.58;101457.66;5049708;28;1193;-81
2023/06/11 09:33:23;;;;;;;;;;;;;;;28.27;45.94;101460.28;5051494;28;1490;-80
2023/06/11 09:35:49;;;;;;;;;;;;;;;28.38;44.91;101459.53;5047563;28;1519;-80
2023/06/11 09:38:15;;;;;;;;;;;;;;;28.42;45.21;101458.03;5034046;28;1237;-80
2023/06/11 09:40:44;;;;;;;;;;;;;;;28.38;42.89;101456.88;5035131;28;1289;-80
2023/06/11 09:43:09;;;;;;;;;;;;;;;28.36;42.93;101458.97;5032893;28;1906;-81
2023/06/11 09:45:34;;;;;;;;;;;;;;;28.41;43.79;101456.41;5053846;28;1671;-80
2023/06/11 09:48:00;;;;;;;;;;;;;;;28.52;42.61;101452.97;5030296;28;1280;-80
2023/06/11 09:50:25;;;;;;;;;;;;;;;28.57;44.07;101450.44;5035719;28;1265;-81
2023/06/11 09:52:51;;;;;;;;;;;;;;;28.59;43.74;101455.53;5046548;28;1637;-81
2023/06/11 09:55:16;;;;;;;;;;;;;;;28.61;43.16;101456.09;5052010;28;1213;-81
2023/06/11 09:57:42;;;;;;;;;;;;;;;28.55;42.97;101454.34;5033473;28;1452;-82
2023/06/11 10:00:11;;;;;;;;;;;;;;;28.53;42.78;101454.59;5048097;28;1301;-81
2023/06/11 10:02:38;;;;;;;;;;;;;;;28.51;41.88;101451.34;5045269;28;1918;-81
2023/06/11 10:05:05;;;;;;;;;;;;;;;28.57;41.38;101465.63;5035832;28;1306;-80
2023/06/11 10:07:31;;;;;;;;;;;;;;;28.60;41.86;101453.66;5035744;28;1510;-80
2023/06/11 10:09:56;;;;;;;;;;;;;;;28.63;42.11;101463.91;5044706;28;1402;-83
2023/06/11 10:12:22;;;;;;;;;;;;;;;28.76;41.68;101463.69;5055571;28;1229;-82
2023/06/11 10:14:51;;;;;;;;;;;;;;;28.75;41.56;101459.38;5042672;28;1259;-82
2023/06/11 10:17:16;;;;;;;;;;;;;;;28.69;41.17;101457.66;5045540;28;1247;-83
2023/06/11 10:19:41;;;;;;;;;;;;;;;28.72;41.61;101459.84;5054785;28;1137;-82
2023/06/11 10:22:08;;;;;;;;;;;;;;;28.67;41.70;101459.72;5056487;28;1963;-81
2023/06/11 10:24:33;;;;;;;;;;;;;;;28.80;41.76;101455.00;5036279;28;1180;-82
2023/06/11 10:27:17;;;;;;;;;;;;;;;28.95;41.30;101459.88;5037216;28;1355;-79
2023/06/11 10:29:46;;;;;;;;;;;;;;;29.16;39.72;101452.34;5050291;28;1295;-81
2023/06/11 10:32:21;;;;;;;;;;;;;;;29.20;39.89;101464.19;5028531;28;1292;-81
2023/06/11 10:34:57;;;;;;;;;;;;;;;29.26;38.91;101464.06;5036949;28;1269;-80
2023/06/11 10:37:28;;;;;;;;;;;;;;;29.28;38.39;101463.84;5031554;28;1616;-79
2023/06/11 10:39:54;;;;;;;;;;;;;;;29.22;39.01;101462.09;5049856;28;1374;-82
2023/06/11 10:42:39;;;;;;;;;;;;;;;29.32;40.10;101456.97;5046210;28;1897;-80
2023/06/11 10:45:11;;;;;;;;;;;;;;;29.42;38.57;101457.22;5049064;28;1361;-81
2023/06/11 10:47:49;;;;;;;;;;;;;;;29.32;38.81;101455.13;5043866;28;1164;-80
2023/06/11 10:50:15;;;;;;;;;;;;;;;29.24;38.63;101454.66;5048128;28;1055;-81
2023/06/11 10:52:49;;;;;;;;;;;;;;;29.27;38.46;101446.19;5047566;28;1049;-80
2023/06/11 10:55:16;;;;;;;;;;;;;;;29.35;37.89;101437.78;5047800;28;1298;-82
2023/06/11 10:57:41;;;;;;;;;;;;;;;29.38;38.18;101442.69;5045460;28;1495;-84
2023/06/11 11:00:07;;;;;;;;;;;;;;;29.47;36.95;101449.28;5035526;28;1511;-80
2023/06/11 11:02:32;;;;;;;;;;;;;;;29.38;36.98;101453.38;5056046;28;2028;-82
2023/06/11 11:04:58;;;;;;;;;;;;;;;29.45;37.66;101451.38;5053752;28;1108;-82
2023/06/11 11:07:33;;;;;;;;;;;;;;;29.47;37.23;101449.28;5047201;28;1245;-80
2023/06/11 11:09:58;;;;;;;;;;;;;;;29.60;37.85;101443.72;5046563;28;1338;-84
2023/06/11 11:12:24;;;;;;;;;;;;;;;29.68;36.97;101441.72;5052833;28;1212;-82
2023/06/11 11:14:50;;;;;;;;;;;;;;;29.58;36.84;101445.78;5034395;28;1214;-84
2023/06/11 11:17:15;;;;;;;;;;;;;;;29.63;36.79;101442.41;5045461;28;1448;-82
2023/06/11 11:19:40;;;;;;;;;;;;;;;29.67;36.05;101443.56;5027616;28;1382;-84
2023/06/11 11:22:05;;;;;;;;;;;;;;;29.72;36.07;101445.53;5023232;28;5273;-84
2023/06/11 11:24:33;;;;;;;;;;;;;;;29.66;35.15;101441.13;5036016;28;1230;-86
2023/06/11 11:26:59;;;;;;;;;;;;;;;29.68;35.25;101439.03;5046120;28;1255;-84
2023/06/11 11:29:24;;;;;;;;;;;;;;;29.81;33.80;101438.75;5025762;28;1539;-84
2023/06/11 11:31:49;;;;;;;;;;;;;;;29.80;34.09;101439.81;5033601;28;1290;-85
2023/06/11 11:34:15;;;;;;;;;;;;;;;29.80;33.39;101442.47;5051443;28;1241;-82
2023/06/11 11:36:43;;;;;;;;;;;;;;;29.81;34.08;101438.75;5029786;28;1409;-83
2023/06/11 11:39:10;;;;;;;;;;;;;;;30.04;34.91;101427.94;5025393;28;1546;-83
2023/06/11 11:41:43;;;;;;;;;;;;;;;30.14;34.24;101425.50;5050815;28;1119;-79
2023/06/11 11:44:08;;;;;;;;;;;;;;;30.25;34.31;101425.69;5028317;28;1934;-81
2023/06/11 11:46:36;;;;;;;;;;;;;;;30.30;33.61;101425.75;5039334;28;1383;-80
2023/06/11 11:49:02;;;;;;;;;;;;;;;30.22;33.58;101418.94;5030051;28;1330;-82
2023/06/11 11:51:29;;;;;;;;;;;;;;;30.12;34.38;101424.94;5051107;28;1153;-83
2023/06/11 11:53:54;;;;;;;;;;;;;;;30.12;34.08;101430.28;5045970;28;1285;-83
2023/06/11 11:56:19;;;;;;;;;;;;;;;30.20;34.20;101420.22;5026204;28;1347;-82
2023/06/11 11:58:45;;;;;;;;;;;;;;;30.27;34.50;101428.91;5045465;28;1226;-83
2023/06/11 12:01:21;;;;;;;;;;;;;;;30.36;35.08;101422.13;5054593;28;1208;-81
2023/06/11 12:03:54;;;;;;;;;;;;;;;30.53;34.22;101428.28;5041771;28;1997;-83
2023/06/11 12:06:23;;;;;;;;;;;;;;;30.69;33.67;101423.22;5031951;28;1633;-85
2023/06/11 12:08:48;;;;;;;;;;;;;;;30.81;33.03;101426.59;5045586;28;1398;-82
2023/06/11 12:11:13;;;;;;;;;;;;;;;30.81;32.65;101423.94;5055696;28;1650;-81
2023/06/11 12:13:38;;;;;;;;;;;;;;;30.84;32.80;101426.09;5043508;28;1369;-79
2023/06/11 12:16:04;;;;;;;;;;;;;;;30.93;33.06;101420.09;5025621;28;1303;-81
2023/06/11 12:18:29;;;;;;;;;;;;;;;30.99;32.52;101420.97;5045410;28;1205;-79
2023/06/11 12:20:54;;;;;;;;;;;;;;;31.09;32.03;101421.13;5050551;28;1238;-83
2023/06/11 12:23:20;;;;;;;;;;;;;;;31.25;32.83;101421.34;5028771;28;1934;-80
2023/06/11 12:25:47;;;;;;;;;;;;;;;31.30;30.03;101424.09;5037001;28;1220;-75
2023/06/11 12:28:12;;;;;;;;;;;;;;;31.27;31.26;101424.59;5029958;28;1516;-87
2023/06/11 12:30:37;;;;;;;;;;;;;;;31.23;30.94;101412.72;5034582;28;1367;-84
2023/06/11 12:33:02;;;;;;;;;;;;;;;31.17;30.82;101403.78;5044108;28;1292;-74
2023/06/11 12:35:28;;;;;;;;;;;;;;;31.19;30.02;101413.19;5049290;28;1383;-75
2023/06/11 12:37:54;;;;;;;;;;;;;;;31.06;31.24;101413.56;5030105;28;1189;-74
2023/06/11 12:40:19;;;;;;;;;;;;;;;31.05;31.49;101414.63;5043764;28;1547;-78
2023/06/11 12:42:44;;;;;;;;;;;;;;;31.17;31.26;101407.28;5047255;28;1979;-78